createdAt,value
2018-03-27T00:03:17.514Z,26.63
2018-03-27T00:08:22.112Z,20.63
2018-03-27T00:13:26.750Z,28.80
2018-03-27T00:18:31.535Z,32.50
2018-03-27T00:23:36.649Z,22.50
2018-03-27T00:28:52.669Z,18.47
2018-03-27T00:34:08.377Z,21.03
2018-03-27T00:39:24.088Z,19.70
2018-03-27T00:44:28.603Z,26.67
2018-03-27T00:49:33.421Z,31.50
2018-03-27T00:54:38.013Z,34.93
2018-03-27T00:59:42.666Z,31.37
2018-03-27T01:04:47.633Z,15.63
2018-03-27T01:09:53.439Z,26.27
2018-03-27T01:14:58.128Z,25.30
2018-03-27T01:20:02.858Z,24.73
2018-03-27T01:25:08.393Z,24.10
2018-03-27T01:30:12.968Z,41.00
2018-03-27T01:35:17.873Z,28.03
2018-03-27T01:40:22.700Z,20.10
2018-03-27T01:45:27.773Z,25.57
2018-03-27T01:50:33.223Z,28.93
2018-03-27T01:55:38.658Z,27.43
2018-03-27T02:00:43.556Z,22.87
2018-03-27T02:05:48.263Z,18.90
2018-03-27T02:10:51.953Z,22.67
2018-03-27T02:16:03.153Z,20.33
2018-03-27T02:21:13.337Z,21.00
2018-03-27T02:26:18.073Z,23.83
2018-03-27T02:31:23.029Z,24.23
2018-03-27T02:36:27.563Z,27.87
2018-03-27T02:41:32.168Z,15.87
2018-03-27T02:46:37.457Z,22.60
2018-03-27T02:51:42.100Z,33.90
2018-03-27T02:56:46.698Z,32.97
2018-03-27T03:01:52.004Z,41.50
2018-03-27T03:06:56.825Z,39.77
2018-03-27T03:12:01.354Z,26.70
2018-03-27T03:17:06.434Z,24.10
2018-03-27T03:22:11.021Z,28.13
2018-03-27T03:27:16.201Z,22.10
2018-03-27T03:32:21.109Z,17.37
2018-03-27T03:37:26.060Z,23.47
2018-03-27T03:42:30.676Z,14.73
2018-03-27T03:47:35.275Z,19.03
2018-03-27T03:52:39.938Z,25.03
2018-03-27T03:57:44.662Z,16.47
2018-03-27T04:02:50.623Z,11.50
2018-03-27T04:07:55.908Z,19.57
2018-03-27T04:13:00.983Z,17.93
2018-03-27T04:18:05.909Z,31.00
2018-03-27T04:23:10.621Z,26.53
2018-03-27T04:28:15.374Z,16.00
2018-03-27T04:33:20.421Z,5.23
2018-03-27T04:38:25.803Z,22.13
2018-03-27T04:43:30.769Z,8.13
2018-03-27T04:48:35.700Z,5.70
2018-03-27T04:53:40.452Z,7.87
2018-03-27T04:58:45.231Z,13.47
2018-03-27T05:03:50.014Z,4.33
2018-03-27T05:08:54.476Z,15.67
2018-03-27T05:13:59.349Z,12.33
2018-03-27T05:19:04.007Z,16.97
2018-03-27T05:24:08.534Z,9.23
2018-03-27T05:29:13.377Z,37.73
2018-03-27T05:34:18.028Z,11.63
2018-03-27T05:39:23.242Z,24.40
2018-03-27T05:44:28.344Z,6.97
2018-03-27T05:49:32.975Z,17.70
2018-03-27T05:54:37.603Z,10.30
2018-03-27T05:59:42.282Z,8.70
2018-03-27T06:04:47.191Z,11.23
2018-03-27T06:09:51.655Z,7.23
2018-03-27T06:14:56.072Z,6.00
2018-03-27T06:20:00.657Z,9.23
2018-03-27T06:25:05.084Z,8.50
2018-03-27T06:30:09.580Z,10.83
2018-03-27T06:35:14.191Z,14.00
2018-03-27T06:40:18.638Z,20.07
2018-03-27T06:45:23.069Z,10.80
2018-03-27T06:50:27.813Z,18.07
2018-03-27T06:55:32.322Z,10.40
2018-03-27T07:00:36.814Z,7.37
2018-03-27T07:05:41.488Z,13.63
2018-03-27T07:10:45.929Z,14.63
2018-03-27T07:15:50.347Z,8.63
2018-03-27T07:20:55.111Z,8.07
2018-03-27T07:25:59.553Z,11.97
2018-03-27T07:31:04.018Z,10.53
2018-03-27T07:36:08.601Z,11.73
2018-03-27T07:41:13.004Z,16.23
2018-03-27T07:46:17.406Z,10.60
2018-03-27T07:51:21.895Z,20.40
2018-03-27T07:56:26.326Z,12.17
2018-03-27T08:01:30.712Z,17.83
2018-03-27T08:06:35.316Z,11.63
2018-03-27T08:11:39.731Z,17.47
2018-03-27T08:16:44.124Z,16.27
2018-03-27T08:21:48.613Z,11.87
2018-03-27T08:26:53.353Z,14.07
2018-03-27T08:32:05.445Z,23.17
2018-03-27T08:37:12.857Z,11.10
2018-03-27T08:42:17.267Z,10.37
2018-03-27T08:47:21.702Z,9.90
2018-03-27T08:52:26.182Z,12.77
2018-03-27T08:57:31.134Z,11.13
2018-03-27T09:02:35.949Z,19.40
2018-03-27T09:07:40.545Z,14.27
2018-03-27T09:12:45.247Z,14.50
2018-03-27T09:17:49.718Z,19.10
2018-03-27T09:22:54.138Z,11.63
2018-03-27T09:27:58.837Z,12.83
2018-03-27T09:33:03.890Z,9.57
2018-03-27T09:38:08.653Z,9.30
2018-03-27T09:43:13.087Z,14.87
2018-03-27T09:48:17.727Z,16.07
2018-03-27T09:53:22.195Z,16.10
2018-03-27T09:58:26.641Z,15.33
2018-03-27T10:03:31.348Z,20.27
2018-03-27T10:08:36.077Z,9.07
2018-03-27T10:13:40.514Z,9.27
2018-03-27T10:18:46.345Z,9.83
2018-03-27T10:23:52.269Z,8.30
2018-03-27T10:28:56.674Z,6.30
2018-03-27T10:34:01.302Z,9.10
2018-03-27T10:39:06.464Z,18.17
2018-03-27T10:44:10.857Z,7.80
2018-03-27T10:49:15.338Z,7.80
2018-03-27T10:54:19.790Z,9.30
2018-03-27T10:59:24.197Z,8.07
2018-03-27T11:04:28.633Z,10.57
2018-03-27T11:09:33.923Z,9.40
2018-03-27T11:14:38.372Z,5.57
2018-03-27T11:19:42.941Z,5.90
2018-03-27T11:24:47.402Z,11.63
2018-03-27T11:29:51.834Z,5.70
2018-03-27T11:34:56.572Z,4.43
2018-03-27T11:40:01.268Z,5.93
2018-03-27T11:45:05.735Z,4.97
2018-03-27T11:50:10.173Z,5.77
2018-03-27T11:55:14.630Z,4.33
2018-03-27T12:00:19.056Z,5.83
2018-03-27T12:05:23.518Z,4.80
2018-03-27T12:10:28.201Z,6.20
2018-03-27T12:15:32.890Z,5.33
2018-03-27T12:20:37.308Z,7.47
2018-03-27T12:25:41.732Z,5.03
2018-03-27T12:30:46.189Z,9.30
2018-03-27T12:35:50.837Z,11.20
2018-03-27T12:42:14.777Z,8.63
2018-03-27T12:47:19.212Z,6.90
2018-03-27T12:52:24.500Z,13.60
2018-03-27T12:57:28.940Z,8.70
2018-03-27T13:02:33.335Z,7.07
2018-03-27T13:07:37.787Z,5.30
2018-03-27T13:12:42.273Z,10.10
2018-03-27T13:17:46.694Z,5.97
2018-03-27T13:22:51.173Z,7.00
2018-03-27T13:27:55.627Z,7.73
2018-03-27T13:33:00.302Z,10.50
2018-03-27T13:38:04.739Z,5.93
2018-03-27T13:43:13.376Z,6.87
2018-03-27T13:48:18.298Z,6.43
2018-03-27T13:53:23.098Z,7.67
2018-03-27T13:58:27.584Z,12.13
2018-03-27T14:03:32.484Z,9.00
2018-03-27T14:08:36.951Z,9.67
2018-03-27T14:13:41.582Z,10.30
2018-03-27T14:18:49.999Z,7.30
2018-03-27T14:23:55.194Z,8.27
2018-03-27T14:28:59.615Z,10.40
2018-03-27T14:34:04.153Z,12.33
2018-03-27T14:39:09.579Z,10.13
2018-03-27T14:44:14.284Z,10.07
2018-03-27T14:49:18.777Z,32.63
2018-03-27T14:54:25.464Z,43.90
2018-03-27T14:59:29.987Z,12.30
2018-03-27T15:04:35.300Z,19.03
2018-03-27T15:09:39.778Z,28.83
2018-03-27T15:14:44.645Z,19.40
2018-03-27T15:19:49.769Z,28.83
2018-03-27T15:24:55.123Z,23.13
2018-03-27T15:29:59.652Z,18.23
2018-03-27T15:35:04.527Z,20.63
2018-03-27T15:40:09.040Z,19.13
2018-03-27T15:45:21.369Z,23.03
2018-03-27T15:50:27.808Z,27.20
2018-03-27T15:55:32.375Z,18.37
2018-03-27T16:00:36.944Z,15.63
2018-03-27T16:05:41.445Z,29.07
2018-03-27T16:10:46.355Z,22.60
2018-03-27T16:15:51.431Z,18.93
2018-03-27T16:20:56.116Z,14.33
2018-03-27T16:26:01.436Z,21.53
2018-03-27T16:31:06.174Z,24.50
2018-03-27T16:36:10.868Z,23.67
2018-03-27T16:41:15.892Z,26.53
2018-03-27T16:46:21.526Z,23.60
2018-03-27T16:51:26.441Z,34.20
2018-03-27T16:56:31.876Z,22.20
2018-03-27T17:01:36.936Z,32.03
2018-03-27T17:06:41.899Z,26.80
2018-03-27T17:11:46.650Z,23.70
2018-03-27T17:16:51.671Z,28.07
2018-03-27T17:21:59.854Z,26.63
2018-03-27T17:27:06.115Z,27.17
2018-03-27T17:32:10.902Z,18.43
2018-03-27T17:37:15.642Z,25.33
2018-03-27T17:42:20.356Z,22.90
2018-03-27T17:47:26.014Z,21.47
2018-03-27T17:52:30.952Z,27.63
2018-03-27T17:57:35.692Z,29.80
2018-03-27T18:02:43.633Z,32.00
2018-03-27T18:07:48.695Z,29.40
2018-03-27T18:12:53.309Z,32.20
2018-03-27T18:17:57.982Z,29.33
2018-03-27T18:23:04.329Z,24.67
2018-03-27T18:28:09.039Z,35.20
2018-03-27T18:33:19.932Z,30.47
2018-03-27T18:38:25.035Z,25.93
2018-03-27T18:43:30.192Z,17.40
2018-03-27T18:48:35.293Z,33.50
2018-03-27T18:53:40.319Z,22.33
2018-03-27T18:58:45.104Z,45.63
2018-03-27T19:03:50.953Z,23.87
2018-03-27T19:15:00.991Z,20.73
2018-03-27T19:15:35.994Z,18.73
2018-03-27T19:16:13.185Z,11.12
2018-03-27T19:16:48.831Z,22.60
2018-03-27T19:17:23.132Z,10.18
2018-03-27T19:27:00.104Z,36.40
2018-03-27T19:32:03.273Z,38.50
2018-03-27T19:37:06.678Z,22.77
2018-03-27T19:42:10.336Z,41.23
2018-03-27T19:47:14.219Z,37.60
2018-03-27T19:52:17.590Z,41.93
2018-03-27T19:57:20.943Z,37.00
2018-03-27T20:02:24.263Z,33.07
2018-03-27T20:07:28.110Z,36.53
2018-03-27T20:12:31.834Z,39.70
2018-03-27T20:17:35.058Z,45.27
2018-03-27T20:22:38.204Z,32.73
2018-03-27T20:27:41.612Z,48.70
2018-03-27T20:32:44.805Z,39.77
2018-03-27T20:37:48.021Z,43.00
2018-03-27T20:42:51.739Z,45.33
2018-03-27T20:47:55.328Z,39.60
2018-03-27T20:52:58.476Z,41.27
2018-03-27T20:58:01.791Z,20.53
2018-03-27T21:03:05.000Z,36.67
2018-03-27T21:08:08.139Z,39.43
2018-03-27T21:13:11.599Z,50.40
2018-03-27T21:18:14.762Z,28.23
2018-03-27T21:23:17.817Z,47.90
2018-03-27T21:28:20.896Z,43.80
2018-03-27T21:33:24.161Z,28.67
2018-03-27T21:38:27.136Z,35.97
2018-03-27T21:43:30.616Z,35.80
2018-03-27T21:48:34.012Z,34.90
2018-03-27T21:53:37.313Z,45.40
2018-03-27T21:58:40.844Z,31.00
2018-03-27T22:03:44.327Z,49.00
2018-03-27T22:08:47.264Z,40.10
2018-03-27T22:13:50.324Z,39.53
2018-03-27T22:18:53.969Z,55.63
2018-03-27T22:23:57.291Z,60.97
2018-03-27T22:29:00.419Z,37.27
2018-03-27T22:34:03.478Z,43.03
2018-03-27T22:39:07.204Z,32.23
2018-03-27T22:44:10.162Z,59.03
2018-03-27T22:49:13.966Z,35.73
2018-03-27T22:54:17.243Z,51.10
2018-03-27T22:59:20.432Z,57.30
2018-03-27T23:04:24.306Z,48.20
2018-03-27T23:09:27.502Z,52.10
2018-03-27T23:14:30.303Z,49.97
2018-03-27T23:19:33.843Z,71.13
2018-03-27T23:24:42.460Z,43.47
2018-03-27T23:29:48.405Z,43.60
2018-03-27T23:34:54.789Z,45.17
2018-03-27T23:40:00.191Z,43.77
2018-03-27T23:45:03.502Z,50.27
2018-03-27T23:50:07.038Z,24.03
2018-03-27T23:55:10.061Z,59.33
